Aérodrome :
LOGIN :

S'inscrire | Disclaimer

   EN    FR    IT 

 










Légende :    VFR   VFR Marginal   IFR   IFR Intensif   IFR Très Intensif
Visi : 
Plafond : 
>= 8 km
>= 3000ft
5 à 8 km
1000 à 3000 ft
1500m à 5 km
500 à 1000 ft
800 à 1500m
200 à 500 ft
< 800m
< 200 ft
Symboles :   Orages  Brouillard  Fortes neiges  Fortes précipitations  Vent > 20 kt
SIGMETs :   Divers  Orages  Givrage  Turbulence  Onde Orograph.  Cendres Volcan.







- Altitude de l'aérodrome : 1302 ft
- Code IATA : GNB
- Voir les cartes d'approche


LFLS - Grenoble / St. Geoirs

DERNIER METAR :
  • 280730Z AUTO 20011KT 9999 FEW064 SCT074 BKN092 10/04 Q1003 NOSIG

METARs EXPIRÉS :
  • 280700Z AUTO 20011KT 160V230 9999 FEW064 OVC088 09/04 Q1004 NOSIG
  • 280630Z AUTO 19012KT CAVOK 09/05 Q1003 NOSIG
  • 280600Z AUTO 19013KT CAVOK 09/05 Q1004 NOSIG
  • 280530Z AUTO 20013KT 170V230 9999 FEW019 OVC086 09/06 Q1004 NOSIG
  • 280500Z AUTO 21014KT 9999 OVC076 10/06 Q1004 TEMPO 22015G25KT 4000 SHRA SCT014 BKN020TCU
  • 280430Z AUTO 21016KT 9999 -RA OVC070 09/06 Q1004 TEMPO 22015G25KT 4000 SHRA SCT014 BKN020TCU

TAF TAF LFLS
Valide du 28 à 03h jusqu'au 01 à 03h UTC


280200Z 2803/0103 22010KT 9999 BKN050
TEMPO 2803/2806 22015G25KT 4000 SHRA SCT014 BKN020TCU
PROB40
TEMPO 2812/2816 24020G35KT 2000 TSRA SCT025CB
TEMPO 2821/2824 36010KT
ATIS : +33 4 76 65 55 89
Pas de NOTAMs connus pour ce terrain.



MET'MAP, la Météo Aéronautique d'un coup d'oeil ! - Copyright ORBIFLY Décembre 2007 - Disclaimer

ORBIFLY MET'MAP TEAM :

Programmation & Développement : Alexandra Zaïnal
Conception & Développement : Baudouin d'Aumeries
Co-Programmation & Développement : Marc-Olivier Méhu
Soutien technique & logistique : Manuel Goepfert

Contact : metmap@orbifly.com




SOURCES & CREDITS :

   NOAA